createdAt,value
2022-10-15T00:00:02.168Z,2.00
2022-10-15T00:00:15.360Z,2.30
2022-10-15T00:00:26.117Z,2.20
2022-10-15T00:00:36.847Z,2.10
2022-10-15T00:00:50.064Z,2.10
2022-10-15T00:01:01.812Z,1.90
2022-10-15T00:01:13.630Z,1.80
2022-10-15T00:01:25.404Z,1.80
2022-10-15T00:01:36.268Z,1.80
2022-10-15T00:01:47.071Z,1.70
2022-10-15T00:01:57.887Z,1.70
2022-10-15T00:02:08.668Z,1.90
2022-10-15T00:02:21.127Z,2.00
2022-10-15T00:02:31.869Z,2.10
2022-10-15T00:02:44.329Z,2.00
2022-10-15T00:02:56.808Z,2.00
2022-10-15T00:03:08.339Z,2.10
2022-10-15T00:03:20.527Z,2.10
2022-10-15T00:03:32.221Z,2.00
2022-10-15T00:03:43.939Z,2.00
2022-10-15T00:03:54.692Z,1.90
2022-10-15T00:04:05.400Z,1.90
2022-10-15T00:04:16.127Z,2.10
2022-10-15T00:04:26.877Z,2.30
2022-10-15T00:04:37.673Z,2.30
2022-10-15T00:04:48.420Z,2.10
2022-10-15T00:04:59.198Z,1.90
2022-10-15T00:05:09.930Z,1.90
2022-10-15T00:05:20.680Z,1.90
2022-10-15T00:05:31.480Z,1.80
2022-10-15T00:05:42.220Z,1.50
2022-10-15T00:05:52.969Z,1.60
2022-10-15T00:06:05.928Z,1.80
2022-10-15T00:06:16.681Z,1.80
2022-10-15T00:06:27.426Z,1.90
2022-10-15T00:06:38.167Z,2.20
2022-10-15T00:06:48.900Z,2.00
2022-10-15T00:06:59.681Z,2.10
2022-10-15T00:07:10.468Z,1.80
2022-10-15T00:07:21.466Z,1.90
2022-10-15T00:07:32.461Z,1.90
2022-10-15T00:07:44.143Z,2.10
2022-10-15T00:07:54.893Z,2.00
2022-10-15T00:08:05.640Z,2.10
2022-10-15T00:08:16.386Z,2.00
2022-10-15T00:08:28.130Z,1.90
2022-10-15T00:08:38.899Z,1.80
2022-10-15T00:08:50.638Z,2.00
2022-10-15T00:09:04.391Z,2.00
2022-10-15T00:09:16.110Z,1.80
2022-10-15T00:09:28.113Z,1.80
2022-10-15T00:09:38.892Z,1.80
2022-10-15T00:09:49.621Z,1.80
2022-10-15T00:10:00.352Z,1.60
2022-10-15T00:10:12.840Z,1.60
2022-10-15T00:10:25.319Z,1.90
2022-10-15T00:10:36.104Z,1.90
2022-10-15T00:10:46.912Z,1.80
2022-10-15T00:10:57.749Z,2.00
2022-10-15T00:11:10.220Z,2.20
2022-10-15T00:11:20.981Z,2.30
2022-10-15T00:11:31.744Z,2.10
2022-10-15T00:11:42.501Z,2.10
2022-10-15T00:11:53.244Z,1.80
2022-10-15T00:12:05.004Z,1.90
2022-10-15T00:12:17.952Z,2.10
2022-10-15T00:12:28.702Z,2.10
2022-10-15T00:12:39.520Z,1.90
2022-10-15T00:12:50.343Z,2.00
2022-10-15T00:13:15.437Z,1.90
2022-10-15T00:13:27.882Z,1.80
2022-10-15T00:13:40.369Z,1.80
2022-10-15T00:13:52.094Z,1.80
2022-10-15T00:14:04.558Z,1.80
2022-10-15T00:14:15.324Z,1.80
2022-10-15T00:14:26.073Z,1.70
2022-10-15T00:14:36.806Z,1.90
2022-10-15T00:14:47.552Z,2.00
2022-10-15T00:14:58.298Z,2.00
2022-10-15T00:15:10.724Z,1.90
2022-10-15T00:15:21.454Z,1.90
2022-10-15T00:15:32.191Z,1.90
2022-10-15T00:15:42.926Z,2.00
2022-10-15T00:15:53.675Z,1.90
2022-10-15T00:16:04.404Z,1.90
2022-10-15T00:16:16.094Z,1.70
2022-10-15T00:16:27.816Z,1.70
2022-10-15T00:16:38.590Z,1.80
2022-10-15T00:16:51.534Z,1.90
2022-10-15T00:17:02.265Z,1.80
2022-10-15T00:17:13.005Z,1.70
2022-10-15T00:17:24.018Z,1.80
2022-10-15T00:17:34.962Z,2.00
2022-10-15T00:17:45.711Z,2.10
2022-10-15T00:17:56.465Z,2.00
2022-10-15T00:18:08.154Z,2.00
2022-10-15T00:18:20.864Z,2.00
2022-10-15T00:18:31.667Z,2.00
2022-10-15T00:18:44.104Z,2.00
2022-10-15T00:18:54.875Z,1.60
2022-10-15T00:19:05.614Z,1.60
2022-10-15T00:19:16.346Z,1.60
2022-10-15T00:19:30.524Z,1.70
2022-10-15T00:19:41.305Z,1.60
2022-10-15T00:19:53.015Z,1.80
2022-10-15T00:20:03.786Z,1.70
2022-10-15T00:20:14.507Z,1.80
2022-10-15T00:20:25.238Z,1.70
2022-10-15T00:20:36.025Z,1.80
2022-10-15T00:20:46.765Z,2.00
2022-10-15T00:20:59.230Z,1.90
2022-10-15T00:21:11.627Z,1.90
2022-10-15T00:21:24.081Z,2.20
2022-10-15T00:21:34.803Z,2.00
2022-10-15T00:21:45.534Z,2.10
2022-10-15T00:21:56.270Z,1.90
2022-10-15T00:22:06.999Z,1.80
2022-10-15T00:22:17.726Z,1.80
2022-10-15T00:22:29.718Z,1.90
2022-10-15T00:22:41.446Z,1.90
2022-10-15T00:22:52.202Z,1.70
2022-10-15T00:23:02.934Z,1.80
2022-10-15T00:23:13.668Z,2.00
2022-10-15T00:23:26.866Z,2.00
2022-10-15T00:23:39.309Z,2.00
2022-10-15T00:23:52.038Z,1.70
2022-10-15T00:24:04.487Z,1.80
2022-10-15T00:24:15.223Z,2.10
2022-10-15T00:24:25.977Z,2.10
2022-10-15T00:24:38.406Z,2.00
2022-10-15T00:24:49.164Z,1.80
2022-10-15T00:24:59.896Z,1.80
2022-10-15T00:25:10.623Z,1.70
2022-10-15T00:25:21.360Z,1.80
2022-10-15T00:25:33.798Z,1.80
2022-10-15T00:25:44.529Z,1.80
2022-10-15T00:25:55.268Z,1.80
2022-10-15T00:26:05.998Z,1.70
2022-10-15T00:26:16.726Z,1.90
2022-10-15T00:26:27.459Z,1.80
2022-10-15T00:26:40.661Z,1.80
2022-10-15T00:26:53.420Z,1.90
2022-10-15T00:27:06.629Z,1.90
2022-10-15T00:27:18.359Z,1.80
2022-10-15T00:27:29.099Z,1.80
2022-10-15T00:27:39.817Z,1.70
2022-10-15T00:27:50.537Z,1.70
2022-10-15T00:28:03.752Z,1.70
2022-10-15T00:28:14.507Z,1.80
2022-10-15T00:28:30.580Z,1.70
2022-10-15T00:28:42.608Z,1.80
2022-10-15T00:28:54.377Z,2.00
2022-10-15T00:29:06.237Z,1.90
2022-10-15T00:29:18.731Z,2.00
2022-10-15T00:29:32.439Z,1.90
2022-10-15T00:29:45.458Z,1.70
2022-10-15T00:29:57.934Z,1.70
2022-10-15T00:30:09.666Z,2.00
2022-10-15T00:30:21.357Z,2.20
2022-10-15T00:30:32.090Z,2.00
2022-10-15T00:30:42.822Z,2.00
2022-10-15T00:30:53.649Z,1.90
2022-10-15T00:31:06.096Z,1.80
2022-10-15T00:31:18.533Z,1.70
2022-10-15T00:31:29.322Z,1.90
2022-10-15T00:31:41.508Z,1.80
2022-10-15T00:31:52.251Z,1.60
2022-10-15T00:32:02.977Z,1.60
2022-10-15T00:32:13.689Z,1.80
2022-10-15T00:32:25.006Z,1.90
2022-10-15T00:32:36.010Z,1.80
2022-10-15T00:32:49.220Z,1.90
2022-10-15T00:33:00.930Z,2.40
2022-10-15T00:33:11.658Z,2.20
2022-10-15T00:33:23.354Z,2.10
2022-10-15T00:33:35.783Z,1.90
2022-10-15T00:33:49.360Z,1.90
2022-10-15T00:34:01.613Z,1.80
2022-10-15T00:34:14.053Z,1.70
2022-10-15T00:34:26.315Z,1.80
2022-10-15T00:34:37.050Z,1.90
2022-10-15T00:34:47.818Z,2.10
2022-10-15T00:34:58.561Z,2.00
2022-10-15T00:35:11.011Z,1.80
2022-10-15T00:35:21.749Z,1.90
2022-10-15T00:35:32.481Z,1.90
2022-10-15T00:35:43.222Z,1.90
2022-10-15T00:35:53.991Z,1.80
2022-10-15T00:36:06.693Z,1.60
2022-10-15T00:36:17.430Z,1.60
2022-10-15T00:36:28.161Z,1.70
2022-10-15T00:36:38.899Z,1.70
2022-10-15T00:36:49.620Z,1.70
2022-10-15T00:37:02.052Z,1.70
2022-10-15T00:37:15.283Z,1.90
2022-10-15T00:37:26.064Z,1.90
2022-10-15T00:37:36.833Z,1.80
2022-10-15T00:37:47.580Z,1.90
2022-10-15T00:37:58.322Z,2.00
2022-10-15T00:38:09.052Z,1.70
2022-10-15T00:38:19.784Z,1.70
2022-10-15T00:38:31.472Z,1.70
2022-10-15T00:38:43.693Z,2.00
2022-10-15T00:38:54.425Z,1.90
2022-10-15T00:39:05.213Z,1.90
2022-10-15T00:39:17.640Z,1.80
2022-10-15T00:39:28.381Z,1.90
2022-10-15T00:39:40.332Z,1.90
2022-10-15T00:39:51.273Z,2.10
2022-10-15T00:40:04.735Z,1.90
2022-10-15T00:40:17.444Z,1.70
2022-10-15T00:40:29.865Z,1.60
2022-10-15T00:40:40.601Z,1.80
2022-10-15T00:40:51.335Z,1.70
2022-10-15T00:41:02.067Z,1.80
2022-10-15T00:41:14.262Z,1.80
2022-10-15T00:41:25.987Z,1.90
2022-10-15T00:41:38.195Z,1.90
2022-10-15T00:41:50.634Z,1.70
2022-10-15T00:42:03.833Z,1.60
2022-10-15T00:42:14.601Z,1.70
2022-10-15T00:42:25.646Z,1.80
2022-10-15T00:42:36.636Z,1.70
2022-10-15T00:42:47.363Z,1.70
2022-10-15T00:42:58.133Z,1.80
2022-10-15T00:43:10.323Z,1.80
2022-10-15T00:43:23.449Z,1.80
2022-10-15T00:43:34.197Z,1.70
2022-10-15T00:43:44.916Z,1.60
2022-10-15T00:43:56.623Z,1.70
2022-10-15T00:44:09.357Z,1.60
2022-10-15T00:44:21.620Z,1.70
2022-10-15T00:44:33.826Z,1.80
2022-10-15T00:44:45.594Z,1.80
2022-10-15T00:44:56.353Z,1.90
2022-10-15T00:45:09.549Z,1.70
2022-10-15T00:45:20.283Z,1.80
2022-10-15T00:45:31.045Z,1.90
2022-10-15T00:45:41.775Z,1.70
2022-10-15T00:45:52.509Z,1.70
2022-10-15T00:46:03.254Z,1.70
2022-10-15T00:46:14.036Z,1.80
2022-10-15T00:46:27.236Z,1.80
2022-10-15T00:46:37.977Z,1.70
2022-10-15T00:46:48.747Z,1.80
2022-10-15T00:46:59.484Z,1.90
2022-10-15T00:47:10.229Z,2.10
2022-10-15T00:47:22.429Z,1.90
2022-10-15T00:47:35.248Z,1.70
2022-10-15T00:47:49.616Z,1.60
2022-10-15T00:48:02.092Z,1.80
2022-10-15T00:48:12.828Z,1.80
2022-10-15T00:48:23.559Z,1.80
2022-10-15T00:48:34.286Z,1.70
2022-10-15T00:48:45.019Z,2.00
2022-10-15T00:48:55.840Z,1.90
2022-10-15T00:49:08.306Z,2.00
2022-10-15T00:49:19.989Z,1.90
2022-10-15T00:49:30.717Z,1.90
2022-10-15T00:49:41.469Z,1.80
2022-10-15T00:49:53.700Z,1.70
2022-10-15T00:50:05.400Z,1.70
2022-10-15T00:50:18.108Z,1.70
2022-10-15T00:50:30.597Z,1.60
2022-10-15T00:50:41.373Z,1.60
2022-10-15T00:50:53.798Z,1.60
2022-10-15T00:51:06.255Z,1.80
2022-10-15T00:51:16.977Z,1.80
2022-10-15T00:51:27.706Z,1.70
2022-10-15T00:51:40.173Z,1.60
2022-10-15T00:51:53.376Z,1.60
2022-10-15T00:52:06.588Z,1.70
2022-10-15T00:52:17.361Z,1.70
2022-10-15T00:52:28.090Z,1.80
2022-10-15T00:52:38.819Z,1.90
2022-10-15T00:52:49.549Z,1.70
2022-10-15T00:53:00.303Z,1.70
2022-10-15T00:53:11.998Z,1.90
2022-10-15T00:53:22.730Z,2.10
2022-10-15T00:53:33.468Z,2.00
2022-10-15T00:53:45.668Z,1.90
2022-10-15T00:53:56.402Z,1.70
2022-10-15T00:54:07.141Z,1.50
2022-10-15T00:54:20.357Z,1.50
2022-10-15T00:54:35.001Z,1.70
2022-10-15T00:54:47.768Z,1.70
2022-10-15T00:55:02.000Z,1.70
2022-10-15T00:55:14.440Z,1.70
2022-10-15T00:55:26.142Z,1.60
2022-10-15T00:55:36.872Z,1.70
2022-10-15T00:55:49.321Z,1.80
2022-10-15T00:56:00.076Z,1.60
2022-10-15T00:56:10.818Z,1.60
2022-10-15T00:56:21.570Z,1.70
2022-10-15T00:56:34.029Z,1.80
2022-10-15T00:56:44.953Z,1.60
2022-10-15T00:56:55.723Z,1.60
2022-10-15T00:57:07.449Z,1.60
2022-10-15T00:57:18.189Z,1.60
2022-10-15T00:57:28.922Z,1.60
2022-10-15T00:57:41.381Z,1.60
2022-10-15T00:57:53.619Z,1.70
2022-10-15T00:58:05.407Z,1.70
2022-10-15T00:58:17.848Z,1.70
2022-10-15T00:58:30.281Z,1.90
2022-10-15T00:58:41.969Z,1.70
2022-10-15T00:58:52.723Z,1.60
2022-10-15T00:59:03.462Z,1.60
2022-10-15T00:59:15.884Z,1.70
2022-10-15T00:59:27.579Z,1.70
2022-10-15T00:59:39.297Z,1.80
2022-10-15T00:59:50.033Z,1.90
2022-10-15T01:00:00.821Z,1.80
2022-10-15T01:00:13.290Z,1.60
2022-10-15T01:00:24.989Z,1.50
2022-10-15T01:00:37.692Z,1.60
2022-10-15T01:00:50.492Z,1.70
2022-10-15T01:01:03.770Z,1.60
2022-10-15T01:01:15.521Z,1.60
2022-10-15T01:01:27.841Z,1.80
2022-10-15T01:01:38.609Z,1.70
2022-10-15T01:01:49.351Z,1.80
2022-10-15T01:02:00.112Z,1.70
2022-10-15T01:02:10.853Z,1.80
2022-10-15T01:02:21.955Z,1.90
2022-10-15T01:02:32.999Z,2.00
2022-10-15T01:02:43.742Z,1.80
2022-10-15T01:02:54.476Z,1.90
2022-10-15T01:03:05.221Z,1.60
2022-10-15T01:03:15.941Z,1.60
2022-10-15T01:03:26.683Z,1.50
2022-10-15T01:03:37.403Z,1.50
2022-10-15T01:03:48.130Z,1.40
2022-10-15T01:03:58.893Z,1.60
2022-10-15T01:04:09.611Z,1.70
2022-10-15T01:04:22.055Z,1.60
2022-10-15T01:04:32.791Z,1.40
2022-10-15T01:04:43.521Z,1.30
2022-10-15T01:04:54.243Z,1.40
2022-10-15T01:05:04.976Z,1.50
2022-10-15T01:05:15.715Z,1.70
2022-10-15T01:05:26.432Z,1.80
2022-10-15T01:05:37.177Z,1.80
2022-10-15T01:05:47.893Z,1.80
2022-10-15T01:05:58.623Z,1.60
2022-10-15T01:06:09.352Z,1.80
2022-10-15T01:06:20.084Z,1.70
2022-10-15T01:06:30.806Z,1.80
2022-10-15T01:06:41.534Z,1.90
2022-10-15T01:06:53.954Z,1.70
2022-10-15T01:07:05.801Z,1.50
2022-10-15T01:07:18.798Z,1.40
2022-10-15T01:07:31.205Z,1.60
2022-10-15T01:07:41.939Z,1.50
2022-10-15T01:07:52.665Z,1.60
2022-10-15T01:08:04.361Z,1.60
2022-10-15T01:08:17.345Z,1.80
2022-10-15T01:08:31.053Z,1.70
2022-10-15T01:08:43.494Z,1.70
2022-10-15T01:08:54.285Z,1.70
2022-10-15T01:09:05.027Z,1.50
2022-10-15T01:09:18.215Z,1.50
2022-10-15T01:09:28.953Z,1.60
2022-10-15T01:09:41.386Z,1.80
2022-10-15T01:09:53.336Z,1.80
2022-10-15T01:10:06.057Z,2.00
2022-10-15T01:10:16.791Z,1.90
2022-10-15T01:10:27.554Z,1.70
2022-10-15T01:10:40.755Z,1.70
2022-10-15T01:10:53.193Z,1.60
2022-10-15T01:11:04.947Z,1.60
2022-10-15T01:11:18.174Z,1.50
2022-10-15T01:11:28.933Z,1.50
2022-10-15T01:11:41.384Z,1.70
2022-10-15T01:11:54.085Z,1.90
2022-10-15T01:12:04.812Z,1.50
2022-10-15T01:12:15.545Z,1.40
2022-10-15T01:12:26.398Z,1.40
2022-10-15T01:12:37.183Z,1.70
2022-10-15T01:12:47.905Z,1.60
2022-10-15T01:12:58.634Z,1.80
2022-10-15T01:13:09.369Z,1.60
2022-10-15T01:13:20.145Z,1.70
2022-10-15T01:13:30.876Z,1.50
2022-10-15T01:13:41.636Z,1.40
2022-10-15T01:13:52.368Z,1.50
2022-10-15T01:14:03.096Z,1.60
2022-10-15T01:14:13.826Z,1.70
2022-10-15T01:14:24.564Z,1.60
2022-10-15T01:14:35.305Z,1.50
2022-10-15T01:14:46.029Z,1.50
2022-10-15T01:14:56.790Z,1.70
2022-10-15T01:15:07.517Z,1.70
2022-10-15T01:15:18.248Z,1.70
2022-10-15T01:15:28.974Z,1.80
2022-10-15T01:15:40.676Z,1.70
2022-10-15T01:15:51.414Z,1.60
2022-10-15T01:16:02.200Z,1.80
2022-10-15T01:16:25.291Z,2.00
2022-10-15T01:16:36.015Z,1.90
2022-10-15T01:16:46.744Z,1.90
2022-10-15T01:16:57.466Z,1.80
2022-10-15T01:17:08.196Z,1.80
2022-10-15T01:17:20.541Z,1.80
2022-10-15T01:17:34.398Z,1.80
2022-10-15T01:17:46.137Z,1.80
2022-10-15T01:17:56.886Z,1.80
2022-10-15T01:18:07.618Z,1.90
2022-10-15T01:18:18.360Z,1.60
2022-10-15T01:18:29.105Z,1.70
2022-10-15T01:18:42.330Z,1.70
2022-10-15T01:18:55.973Z,1.80
2022-10-15T01:19:06.748Z,1.70
2022-10-15T01:19:17.508Z,1.50
2022-10-15T01:19:30.708Z,1.50
2022-10-15T01:19:41.458Z,1.70
2022-10-15T01:19:53.892Z,1.80
2022-10-15T01:20:05.662Z,1.90
2022-10-15T01:20:16.418Z,1.70
2022-10-15T01:20:28.838Z,1.60
2022-10-15T01:20:39.571Z,1.40
2022-10-15T01:20:51.968Z,1.40
2022-10-15T01:21:02.719Z,1.50
2022-10-15T01:21:14.937Z,1.40
2022-10-15T01:21:27.398Z,1.70
2022-10-15T01:21:38.173Z,1.60
2022-10-15T01:21:48.960Z,1.80
2022-10-15T01:22:01.458Z,1.60
2022-10-15T01:22:13.928Z,1.50
2022-10-15T01:22:24.678Z,1.70
2022-10-15T01:22:35.419Z,1.60
2022-10-15T01:22:46.177Z,1.60
2022-10-15T01:22:56.919Z,1.50
2022-10-15T01:23:09.049Z,1.40
2022-10-15T01:23:21.254Z,1.50
2022-10-15T01:23:34.409Z,1.60
2022-10-15T01:23:45.140Z,1.70
2022-10-15T01:23:55.869Z,1.70
2022-10-15T01:24:06.621Z,1.70
2022-10-15T01:24:17.349Z,1.60
2022-10-15T01:24:28.092Z,1.60
2022-10-15T01:24:40.523Z,1.60
2022-10-15T01:24:51.239Z,1.70
2022-10-15T01:25:01.979Z,1.70
2022-10-15T01:25:13.690Z,1.70
2022-10-15T01:25:24.422Z,1.50
2022-10-15T01:25:36.124Z,1.70
2022-10-15T01:25:46.842Z,1.60
2022-10-15T01:25:57.580Z,1.60
2022-10-15T01:26:08.319Z,1.60
2022-10-15T01:26:19.053Z,1.70
2022-10-15T01:26:29.782Z,1.80
2022-10-15T01:26:40.509Z,1.70
2022-10-15T01:26:51.241Z,1.70
2022-10-15T01:27:01.970Z,1.50
2022-10-15T01:27:12.707Z,1.50
2022-10-15T01:27:23.688Z,1.50
2022-10-15T01:27:36.199Z,1.60
2022-10-15T01:27:49.527Z,1.80
2022-10-15T01:28:02.231Z,1.80
2022-10-15T01:28:13.008Z,1.60
2022-10-15T01:28:26.233Z,1.40
2022-10-15T01:28:37.004Z,1.60
2022-10-15T01:28:48.996Z,1.70
2022-10-15T01:29:01.219Z,1.60
2022-10-15T01:29:12.038Z,1.80
2022-10-15T01:29:24.484Z,1.90
2022-10-15T01:29:35.252Z,1.80
2022-10-15T01:29:47.686Z,1.60
2022-10-15T01:30:00.892Z,1.50
2022-10-15T01:30:11.704Z,1.50
2022-10-15T01:30:24.150Z,1.40
2022-10-15T01:30:34.883Z,1.50
2022-10-15T01:30:46.572Z,1.50
2022-10-15T01:30:57.322Z,1.70
2022-10-15T01:31:08.104Z,1.60
2022-10-15T01:31:21.304Z,1.50
2022-10-15T01:31:34.251Z,1.40
2022-10-15T01:31:48.463Z,1.50
2022-10-15T01:31:59.221Z,1.50
2022-10-15T01:32:10.947Z,1.60
2022-10-15T01:32:23.403Z,1.70
2022-10-15T01:32:35.854Z,1.80
2022-10-15T01:32:46.581Z,1.70
2022-10-15T01:32:57.319Z,1.80
2022-10-15T01:33:08.063Z,1.70
2022-10-15T01:33:18.842Z,1.50
2022-10-15T01:33:30.526Z,1.60
2022-10-15T01:33:41.253Z,1.70
2022-10-15T01:33:52.013Z,1.70
2022-10-15T01:34:02.774Z,1.70
2022-10-15T01:34:30.097Z,1.50
2022-10-15T01:34:40.832Z,1.50
2022-10-15T01:34:51.566Z,1.60
2022-10-15T01:35:02.367Z,1.60
2022-10-15T01:35:13.103Z,1.50
2022-10-15T01:35:23.825Z,1.50
2022-10-15T01:35:36.049Z,1.50
2022-10-15T01:35:46.765Z,1.60
2022-10-15T01:36:01.296Z,1.50
2022-10-15T01:36:14.601Z,1.60
2022-10-15T01:36:25.345Z,1.70
2022-10-15T01:36:36.078Z,1.60
2022-10-15T01:36:46.814Z,1.60
2022-10-15T01:36:57.535Z,1.60
2022-10-15T01:37:08.315Z,1.70
2022-10-15T01:37:19.055Z,1.80
2022-10-15T01:37:32.265Z,1.80
2022-10-15T01:37:43.026Z,1.60
2022-10-15T01:37:54.721Z,1.60
2022-10-15T01:38:07.735Z,1.50
2022-10-15T01:38:19.685Z,1.70
2022-10-15T01:38:31.391Z,1.70
2022-10-15T01:38:42.157Z,1.80
2022-10-15T01:38:53.856Z,1.80
2022-10-15T01:39:04.617Z,1.60
2022-10-15T01:39:16.324Z,1.60
2022-10-15T01:39:28.535Z,1.70
2022-10-15T01:39:39.265Z,1.60
2022-10-15T01:39:51.013Z,1.50
2022-10-15T01:40:01.760Z,1.50
2022-10-15T01:40:12.529Z,1.60
2022-10-15T01:40:23.275Z,1.50
2022-10-15T01:40:34.015Z,1.60
2022-10-15T01:40:47.217Z,1.70
2022-10-15T01:40:57.954Z,1.80
2022-10-15T01:41:09.668Z,1.90
2022-10-15T01:41:20.409Z,2.00
2022-10-15T01:41:31.135Z,2.00
2022-10-15T01:41:41.890Z,1.90
2022-10-15T01:41:53.599Z,2.00
2022-10-15T01:42:06.027Z,1.80
2022-10-15T01:42:17.728Z,1.80
2022-10-15T01:42:30.955Z,1.60
2022-10-15T01:42:43.427Z,1.50
2022-10-15T01:42:57.155Z,1.60
2022-10-15T01:43:07.877Z,1.70
2022-10-15T01:43:18.697Z,1.60
2022-10-15T01:43:29.417Z,1.60
2022-10-15T01:43:41.826Z,1.60
2022-10-15T01:43:52.561Z,1.60
2022-10-15T01:44:03.314Z,1.80
2022-10-15T01:44:14.019Z,1.70
2022-10-15T01:44:24.755Z,1.60
2022-10-15T01:44:35.487Z,1.40
2022-10-15T01:44:46.245Z,1.20
2022-10-15T01:44:56.996Z,1.30
2022-10-15T01:45:07.743Z,1.50
2022-10-15T01:45:19.447Z,1.80
2022-10-15T01:45:30.181Z,1.70
2022-10-15T01:45:41.878Z,1.40
2022-10-15T01:45:54.311Z,1.40
2022-10-15T01:46:05.035Z,1.40
2022-10-15T01:46:16.728Z,1.50
2022-10-15T01:46:29.435Z,1.60
2022-10-15T01:46:41.858Z,1.80
2022-10-15T01:46:52.600Z,1.80
2022-10-15T01:47:03.330Z,1.90
2022-10-15T01:47:14.070Z,1.60
2022-10-15T01:47:26.195Z,1.80
2022-10-15T01:47:37.989Z,1.80
2022-10-15T01:47:48.779Z,1.90
2022-10-15T01:47:59.509Z,1.70
2022-10-15T01:48:10.236Z,1.70
2022-10-15T01:48:25.459Z,1.60
2022-10-15T01:48:38.169Z,1.50
2022-10-15T01:48:51.394Z,1.80
2022-10-15T01:49:04.589Z,1.90
2022-10-15T01:49:16.301Z,1.60
2022-10-15T01:49:27.040Z,1.40
2022-10-15T01:49:39.498Z,1.50
2022-10-15T01:49:52.233Z,1.60
2022-10-15T01:50:04.412Z,1.40
2022-10-15T01:50:15.299Z,1.50
2022-10-15T01:50:26.040Z,1.50
2022-10-15T01:50:37.731Z,1.40
2022-10-15T01:50:48.483Z,1.70
2022-10-15T01:50:59.247Z,1.60
2022-10-15T01:51:10.955Z,1.60
2022-10-15T01:51:21.689Z,1.50
2022-10-15T01:51:34.155Z,1.40
2022-10-15T01:51:44.882Z,1.50
2022-10-15T01:51:56.572Z,1.60
2022-10-15T01:52:07.302Z,1.60
2022-10-15T01:52:19.586Z,1.60
2022-10-15T01:52:32.058Z,1.50
2022-10-15T01:52:44.490Z,1.40
2022-10-15T01:52:55.238Z,1.50
2022-10-15T01:53:05.971Z,1.50
2022-10-15T01:53:18.448Z,1.60
2022-10-15T01:53:29.188Z,1.60
2022-10-15T01:53:42.381Z,1.60
2022-10-15T01:53:53.113Z,1.50
2022-10-15T01:54:03.887Z,1.60
2022-10-15T01:54:14.631Z,1.60
2022-10-15T01:54:25.359Z,1.50
2022-10-15T01:54:36.083Z,1.50
2022-10-15T01:54:46.811Z,1.50
2022-10-15T01:54:58.503Z,1.60
2022-10-15T01:55:10.722Z,1.70
2022-10-15T01:55:21.462Z,1.60
2022-10-15T01:55:32.203Z,1.40
2022-10-15T01:55:45.405Z,1.40
2022-10-15T01:55:56.147Z,1.50
2022-10-15T01:56:07.842Z,1.40
2022-10-15T01:56:18.582Z,1.40
2022-10-15T01:56:29.337Z,1.40
2022-10-15T01:56:42.544Z,1.60
2022-10-15T01:56:54.241Z,1.80
2022-10-15T01:57:05.004Z,1.70
2022-10-15T01:57:15.766Z,1.60
2022-10-15T01:57:26.737Z,1.90
2022-10-15T01:57:37.713Z,1.80
2022-10-15T01:57:50.905Z,1.90
2022-10-15T01:58:01.684Z,1.70
2022-10-15T01:58:13.385Z,1.70
2022-10-15T01:58:24.119Z,1.60
2022-10-15T01:58:37.543Z,1.60
2022-10-15T01:58:50.822Z,1.80
2022-10-15T01:59:04.060Z,1.90
2022-10-15T01:59:14.803Z,1.70
2022-10-15T01:59:26.504Z,1.60
2022-10-15T01:59:37.274Z,1.40
2022-10-15T01:59:48.012Z,1.30
2022-10-15T02:00:01.223Z,1.40
2022-10-15T02:00:13.704Z,1.60
2022-10-15T02:00:26.149Z,1.70
2022-10-15T02:00:38.365Z,1.60
2022-10-15T02:00:49.139Z,1.40
2022-10-15T02:01:00.867Z,1.60
2022-10-15T02:01:12.587Z,1.80
2022-10-15T02:01:24.267Z,1.80
2022-10-15T02:01:36.740Z,1.90
2022-10-15T02:01:49.951Z,1.60
2022-10-15T02:02:00.684Z,1.60
2022-10-15T02:02:11.438Z,1.40
2022-10-15T02:02:22.529Z,1.50
2022-10-15T02:02:33.520Z,1.50
2022-10-15T02:02:45.733Z,1.60
2022-10-15T02:02:57.463Z,1.50
2022-10-15T02:03:11.200Z,1.60
2022-10-15T02:03:24.384Z,1.60
2022-10-15T02:03:36.084Z,1.60
2022-10-15T02:03:46.806Z,1.60
2022-10-15T02:03:57.535Z,1.30
2022-10-15T02:04:08.294Z,1.40
2022-10-15T02:04:19.018Z,1.40
2022-10-15T02:04:29.744Z,1.40
2022-10-15T02:04:40.505Z,1.50
2022-10-15T02:04:51.249Z,1.50
2022-10-15T02:05:01.977Z,1.60
2022-10-15T02:05:12.705Z,1.70
2022-10-15T02:05:23.459Z,2.00
2022-10-15T02:05:34.326Z,2.00
2022-10-15T02:05:45.977Z,2.00
2022-10-15T02:05:59.167Z,1.50
2022-10-15T02:06:09.900Z,1.50
2022-10-15T02:06:21.594Z,1.60
2022-10-15T02:06:32.335Z,1.60
2022-10-15T02:06:43.095Z,1.60
2022-10-15T02:06:53.825Z,1.50
2022-10-15T02:07:05.546Z,1.40
2022-10-15T02:07:16.305Z,1.50
2022-10-15T02:07:27.081Z,1.70
2022-10-15T02:07:38.086Z,1.80
2022-10-15T02:07:50.537Z,1.70
2022-10-15T02:08:01.278Z,1.40
2022-10-15T02:08:12.006Z,1.20
2022-10-15T02:08:22.765Z,1.10
2022-10-15T02:08:35.207Z,1.20
2022-10-15T02:08:45.936Z,1.50
2022-10-15T02:08:58.628Z,1.40
2022-10-15T02:09:12.393Z,1.50
2022-10-15T02:09:24.842Z,1.60
2022-10-15T02:09:35.577Z,1.50
2022-10-15T02:09:46.408Z,1.70
2022-10-15T02:09:58.103Z,1.80
2022-10-15T02:10:08.829Z,1.80
2022-10-15T02:10:22.027Z,1.60
2022-10-15T02:10:35.351Z,1.60
2022-10-15T02:10:47.846Z,1.50
2022-10-15T02:10:58.573Z,1.60
2022-10-15T02:11:09.307Z,1.50
2022-10-15T02:11:21.760Z,1.40
2022-10-15T02:11:32.467Z,1.40
2022-10-15T02:11:43.220Z,1.50
2022-10-15T02:11:55.647Z,1.60
2022-10-15T02:12:07.355Z,1.50
2022-10-15T02:12:18.105Z,1.60
2022-10-15T02:12:30.536Z,1.40
2022-10-15T02:12:41.288Z,1.70
2022-10-15T02:12:52.029Z,1.60
2022-10-15T02:13:02.777Z,1.80
2022-10-15T02:13:16.260Z,1.60
2022-10-15T02:13:27.007Z,1.60
2022-10-15T02:13:38.708Z,1.60
2022-10-15T02:13:49.449Z,1.60
2022-10-15T02:14:00.178Z,1.70
2022-10-15T02:14:10.907Z,1.50
2022-10-15T02:14:23.331Z,1.50
2022-10-15T02:14:34.105Z,1.50
2022-10-15T02:14:44.830Z,1.60
2022-10-15T02:14:55.559Z,1.70
2022-10-15T02:15:06.301Z,1.80
2022-10-15T02:15:17.040Z,1.60
2022-10-15T02:15:27.770Z,1.60
2022-10-15T02:15:40.228Z,1.50
2022-10-15T02:15:53.439Z,1.60
2022-10-15T02:16:04.176Z,1.60
2022-10-15T02:16:14.936Z,1.70
2022-10-15T02:16:25.659Z,1.80
2022-10-15T02:16:36.398Z,1.70
2022-10-15T02:16:48.092Z,2.10
2022-10-15T02:16:58.829Z,2.00
2022-10-15T02:17:09.590Z,1.90
2022-10-15T02:17:22.021Z,1.70
2022-10-15T02:17:34.950Z,1.80
2022-10-15T02:17:47.673Z,1.60
2022-10-15T02:17:58.415Z,1.40
2022-10-15T02:18:10.852Z,1.30
2022-10-15T02:18:21.579Z,1.20
2022-10-15T02:18:32.339Z,1.40
2022-10-15T02:18:43.112Z,1.50
2022-10-15T02:18:55.525Z,1.80
2022-10-15T02:19:06.260Z,1.70
2022-10-15T02:19:19.375Z,1.80
2022-10-15T02:19:33.642Z,1.90
2022-10-15T02:19:46.125Z,1.80
2022-10-15T02:19:56.897Z,1.60
2022-10-15T02:20:08.603Z,1.60
2022-10-15T02:20:19.371Z,1.40
2022-10-15T02:20:30.114Z,1.70
2022-10-15T02:20:41.851Z,1.70
2022-10-15T02:20:55.061Z,1.70
2022-10-15T02:21:08.003Z,1.50
2022-10-15T02:21:19.737Z,1.60
2022-10-15T02:21:32.164Z,1.60
2022-10-15T02:21:42.950Z,1.40
2022-10-15T02:21:53.724Z,1.40
2022-10-15T02:22:04.461Z,1.70
2022-10-15T02:22:16.152Z,1.60
2022-10-15T02:22:28.581Z,1.70
2022-10-15T02:22:39.321Z,1.80
2022-10-15T02:22:51.029Z,1.60
2022-10-15T02:23:01.778Z,1.70
2022-10-15T02:23:12.501Z,1.70
2022-10-15T02:23:25.922Z,1.70
2022-10-15T02:23:38.375Z,1.60
2022-10-15T02:23:51.083Z,1.70
2022-10-15T02:24:01.871Z,1.70
2022-10-15T02:24:14.316Z,1.70
2022-10-15T02:24:25.032Z,1.50
2022-10-15T02:24:35.763Z,1.60
2022-10-15T02:24:46.512Z,1.50
2022-10-15T02:24:57.265Z,1.60
2022-10-15T02:25:07.991Z,1.80
2022-10-15T02:25:20.432Z,1.90
2022-10-15T02:25:31.173Z,1.70
2022-10-15T02:25:41.896Z,1.70
2022-10-15T02:25:52.631Z,1.60
2022-10-15T02:26:04.333Z,1.50
2022-10-15T02:26:16.772Z,1.50
2022-10-15T02:26:28.984Z,1.50
2022-10-15T02:26:39.724Z,1.70
2022-10-15T02:26:50.463Z,1.90
2022-10-15T02:27:02.154Z,1.90
2022-10-15T02:27:13.836Z,1.90
2022-10-15T02:27:25.553Z,1.80
2022-10-15T02:27:36.314Z,1.80
2022-10-15T02:27:48.597Z,1.60
2022-10-15T02:27:59.362Z,1.50
2022-10-15T02:28:10.106Z,1.60
2022-10-15T02:28:20.872Z,1.80
2022-10-15T02:28:33.305Z,1.60
2022-10-15T02:28:44.094Z,1.60
2022-10-15T02:28:54.863Z,1.40
2022-10-15T02:29:05.806Z,1.50
2022-10-15T02:29:27.277Z,1.60
2022-10-15T02:29:38.976Z,1.60
2022-10-15T02:29:54.205Z,1.80
2022-10-15T02:30:06.634Z,1.80
2022-10-15T02:30:17.375Z,1.70
2022-10-15T02:30:28.112Z,1.70
2022-10-15T02:30:41.817Z,1.70
2022-10-15T02:30:52.586Z,1.60
2022-10-15T02:31:05.039Z,1.60
2022-10-15T02:31:15.793Z,1.60
2022-10-15T02:31:29.485Z,1.70
2022-10-15T02:31:41.956Z,1.70
2022-10-15T02:31:55.173Z,1.80
2022-10-15T02:32:05.946Z,1.80
2022-10-15T02:32:16.676Z,1.70
2022-10-15T02:32:29.094Z,1.90
2022-10-15T02:32:39.837Z,1.80
2022-10-15T02:32:51.525Z,1.60
2022-10-15T02:33:02.294Z,1.50
2022-10-15T02:33:15.514Z,1.60
2022-10-15T02:33:26.274Z,1.60
2022-10-15T02:33:38.698Z,1.60